sensor_id;sensor_type;location;lat;lon;timestamp;pressure;altitude;pressure_sealevel;temperature;humidity
11621;BME280;5866;49.094;11.900;2023-10-13T00:01:04;96341.50;;;17.68;100.00
11621;BME280;5866;49.094;11.900;2023-10-13T00:03:33;96350.59;;;17.67;100.00
11621;BME280;5866;49.094;11.900;2023-10-13T00:06:03;96349.13;;;17.58;100.00
11621;BME280;5866;49.094;11.900;2023-10-13T00:08:32;96357.72;;;17.47;100.00
11621;BME280;5866;49.094;11.900;2023-10-13T00:11:00;96354.69;;;17.50;100.00
11621;BME280;5866;49.094;11.900;2023-10-13T00:13:29;96362.47;;;17.45;100.00
11621;BME280;5866;49.094;11.900;2023-10-13T00:16:09;96353.84;;;17.50;100.00
11621;BME280;5866;49.094;11.900;2023-10-13T00:18:43;96351.41;;;17.55;100.00
11621;BME280;5866;49.094;11.900;2023-10-13T00:21:11;96343.75;;;17.58;100.00
11621;BME280;5866;49.094;11.900;2023-10-13T00:23:50;96347.31;;;17.65;100.00
11621;BME280;5866;49.094;11.900;2023-10-13T00:26:20;96349.38;;;17.63;100.00
11621;BME280;5866;49.094;11.900;2023-10-13T00:28:51;96344.81;;;17.64;100.00
11621;BME280;5866;49.094;11.900;2023-10-13T00:31:26;96337.59;;;17.64;100.00
11621;BME280;5866;49.094;11.900;2023-10-13T00:34:00;96332.19;;;17.51;100.00
11621;BME280;5866;49.094;11.900;2023-10-13T00:36:36;96327.41;;;17.46;100.00
11621;BME280;5866;49.094;11.900;2023-10-13T00:39:03;96333.59;;;17.47;100.00
11621;BME280;5866;49.094;11.900;2023-10-13T00:41:33;96328.28;;;17.54;100.00
11621;BME280;5866;49.094;11.900;2023-10-13T00:44:17;96315.84;;;17.46;100.00
11621;BME280;5866;49.094;11.900;2023-10-13T00:46:53;96315.41;;;17.29;100.00
11621;BME280;5866;49.094;11.900;2023-10-13T00:49:23;96312.78;;;16.95;100.00
11621;BME280;5866;49.094;11.900;2023-10-13T00:51:51;96318.09;;;16.89;100.00
11621;BME280;5866;49.094;11.900;2023-10-13T00:54:18;96323.41;;;16.76;100.00
11621;BME280;5866;49.094;11.900;2023-10-13T00:56:54;96329.09;;;17.00;100.00
11621;BME280;5866;49.094;11.900;2023-10-13T00:59:31;96333.25;;;17.09;100.00
11621;BME280;5866;49.094;11.900;2023-10-13T01:02:08;96337.97;;;17.01;100.00
11621;BME280;5866;49.094;11.900;2023-10-13T01:04:50;96326.91;;;17.17;100.00
11621;BME280;5866;49.094;11.900;2023-10-13T01:07:21;96332.69;;;17.27;100.00
11621;BME280;5866;49.094;11.900;2023-10-13T01:09:51;96333.13;;;17.30;100.00
11621;BME280;5866;49.094;11.900;2023-10-13T01:12:17;96331.50;;;17.36;100.00
11621;BME280;5866;49.094;11.900;2023-10-13T01:14:45;96328.38;;;17.32;100.00
11621;BME280;5866;49.094;11.900;2023-10-13T01:17:13;96332.25;;;17.17;100.00
11621;BME280;5866;49.094;11.900;2023-10-13T01:19:41;96327.97;;;17.29;100.00
11621;BME280;5866;49.094;11.900;2023-10-13T01:22:09;96322.66;;;16.88;100.00
11621;BME280;5866;49.094;11.900;2023-10-13T01:24:39;96328.88;;;16.33;100.00
11621;BME280;5866;49.094;11.900;2023-10-13T01:27:07;96314.06;;;16.37;100.00
11621;BME280;5866;49.094;11.900;2023-10-13T01:29:44;96307.50;;;16.46;100.00
11621;BME280;5866;49.094;11.900;2023-10-13T01:32:14;96311.09;;;16.53;100.00
11621;BME280;5866;49.094;11.900;2023-10-13T01:34:42;96316.19;;;16.48;100.00
11621;BME280;5866;49.094;11.900;2023-10-13T01:37:12;96313.34;;;16.50;100.00
11621;BME280;5866;49.094;11.900;2023-10-13T01:39:44;96323.31;;;16.62;100.00
11621;BME280;5866;49.094;11.900;2023-10-13T01:42:13;96324.13;;;16.56;100.00
11621;BME280;5866;49.094;11.900;2023-10-13T01:44:46;96322.44;;;16.55;100.00
11621;BME280;5866;49.094;11.900;2023-10-13T01:47:13;96320.41;;;16.57;100.00
11621;BME280;5866;49.094;11.900;2023-10-13T01:49:42;96327.47;;;16.65;100.00
11621;BME280;5866;49.094;11.900;2023-10-13T01:52:14;96320.53;;;16.77;100.00
11621;BME280;5866;49.094;11.900;2023-10-13T01:54:43;96317.25;;;16.82;100.00
11621;BME280;5866;49.094;11.900;2023-10-13T01:57:12;96316.84;;;16.85;100.00
11621;BME280;5866;49.094;11.900;2023-10-13T01:59:40;96313.97;;;16.86;100.00
11621;BME280;5866;49.094;11.900;2023-10-13T02:02:10;96324.91;;;16.50;100.00
11621;BME280;5866;49.094;11.900;2023-10-13T02:04:39;96321.44;;;16.56;100.00
11621;BME280;5866;49.094;11.900;2023-10-13T02:07:09;96319.13;;;16.53;100.00
11621;BME280;5866;49.094;11.900;2023-10-13T02:09:41;96312.31;;;16.51;100.00
11621;BME280;5866;49.094;11.900;2023-10-13T02:12:10;96316.47;;;16.53;100.00
11621;BME280;5866;49.094;11.900;2023-10-13T02:14:37;96316.31;;;16.61;100.00
11621;BME280;5866;49.094;11.900;2023-10-13T02:17:05;96318.75;;;16.56;100.00
11621;BME280;5866;49.094;11.900;2023-10-13T02:19:39;96321.84;;;16.32;100.00
11621;BME280;5866;49.094;11.900;2023-10-13T02:22:11;96317.38;;;16.39;100.00
11621;BME280;5866;49.094;11.900;2023-10-13T02:24:38;96319.00;;;16.40;100.00
11621;BME280;5866;49.094;11.900;2023-10-13T02:27:07;96308.09;;;16.35;100.00
11621;BME280;5866;49.094;11.900;2023-10-13T02:29:37;96306.41;;;16.34;100.00
11621;BME280;5866;49.094;11.900;2023-10-13T02:32:06;96303.34;;;16.37;100.00
11621;BME280;5866;49.094;11.900;2023-10-13T02:34:39;96295.72;;;16.34;100.00
11621;BME280;5866;49.094;11.900;2023-10-13T02:37:10;96303.75;;;16.34;100.00
11621;BME280;5866;49.094;11.900;2023-10-13T02:39:37;96307.03;;;16.36;100.00
11621;BME280;5866;49.094;11.900;2023-10-13T02:42:07;96307.44;;;16.33;100.00
11621;BME280;5866;49.094;11.900;2023-10-13T02:44:34;96307.44;;;16.33;100.00
11621;BME280;5866;49.094;11.900;2023-10-13T02:47:04;96305.56;;;16.34;100.00
11621;BME280;5866;49.094;11.900;2023-10-13T02:49:32;96295.06;;;16.32;100.00
11621;BME280;5866;49.094;11.900;2023-10-13T02:52:03;96290.97;;;16.09;100.00
11621;BME280;5866;49.094;11.900;2023-10-13T02:54:31;96296.47;;;16.01;100.00
11621;BME280;5866;49.094;11.900;2023-10-13T02:57:06;96284.19;;;16.06;100.00
11621;BME280;5866;49.094;11.900;2023-10-13T02:59:32;96298.00;;;16.10;100.00
11621;BME280;5866;49.094;11.900;2023-10-13T03:02:08;96293.22;;;16.05;100.00
11621;BME280;5866;49.094;11.900;2023-10-13T03:04:46;96284.19;;;16.06;100.00
11621;BME280;5866;49.094;11.900;2023-10-13T03:07:14;96280.69;;;16.06;100.00
11621;BME280;5866;49.094;11.900;2023-10-13T03:09:42;96285.84;;;16.07;100.00
11621;BME280;5866;49.094;11.900;2023-10-13T03:12:18;96285.84;;;16.07;100.00
11621;BME280;5866;49.094;11.900;2023-10-13T03:14:45;96280.75;;;16.12;100.00
11621;BME280;5866;49.094;11.900;2023-10-13T03:17:16;96288.28;;;16.02;100.00
11621;BME280;5866;49.094;11.900;2023-10-13T03:19:46;96299.84;;;16.09;100.00
11621;BME280;5866;49.094;11.900;2023-10-13T03:22:17;96290.81;;;16.10;100.00
11621;BME280;5866;49.094;11.900;2023-10-13T03:24:44;96288.81;;;16.19;100.00
11621;BME280;5866;49.094;11.900;2023-10-13T03:27:13;96288.91;;;16.04;100.00
11621;BME280;5866;49.094;11.900;2023-10-13T03:29:44;96294.38;;;15.96;100.00
11621;BME280;5866;49.094;11.900;2023-10-13T03:32:16;96287.03;;;15.98;100.00
11621;BME280;5866;49.094;11.900;2023-10-13T03:34:45;96297.00;;;16.11;100.00
11621;BME280;5866;49.094;11.900;2023-10-13T03:37:33;96291.66;;;16.17;100.00
11621;BME280;5866;49.094;11.900;2023-10-13T03:40:07;96297.28;;;16.22;100.00
11621;BME280;5866;49.094;11.900;2023-10-13T03:42:57;96287.56;;;16.21;100.00
11621;BME280;5866;49.094;11.900;2023-10-13T03:45:32;96291.66;;;16.17;100.00
11621;BME280;5866;49.094;11.900;2023-10-13T03:48:05;96294.50;;;16.09;100.00
11621;BME280;5866;49.094;11.900;2023-10-13T03:50:36;96292.19;;;15.78;100.00
11621;BME280;5866;49.094;11.900;2023-10-13T03:53:12;96279.38;;;15.74;100.00
11621;BME280;5866;49.094;11.900;2023-10-13T03:55:40;96279.16;;;15.48;100.00
11621;BME280;5866;49.094;11.900;2023-10-13T03:58:14;96274.31;;;15.58;100.00
11621;BME280;5866;49.094;11.900;2023-10-13T04:00:43;96280.31;;;15.60;100.00
11621;BME280;5866;49.094;11.900;2023-10-13T04:03:12;96280.69;;;15.42;100.00
11621;BME280;5866;49.094;11.900;2023-10-13T04:05:43;96272.41;;;15.73;100.00
11621;BME280;5866;49.094;11.900;2023-10-13T04:08:13;96277.34;;;15.76;100.00
11621;BME280;5866;49.094;11.900;2023-10-13T04:11:10;96268.06;;;15.72;100.00
11621;BME280;5866;49.094;11.900;2023-10-13T04:13:51;96266.38;;;15.71;100.00
11621;BME280;5866;49.094;11.900;2023-10-13T04:16:37;96265.81;;;15.75;100.00
11621;BME280;5866;49.094;11.900;2023-10-13T04:19:18;96263.69;;;15.64;100.00
11621;BME280;5866;49.094;11.900;2023-10-13T04:21:56;96269.13;;;15.56;100.00
11621;BME280;5866;49.094;11.900;2023-10-13T04:24:26;96267.88;;;15.52;100.00
11621;BME280;5866;49.094;11.900;2023-10-13T04:27:08;96269.47;;;15.47;100.00
11621;BME280;5866;49.094;11.900;2023-10-13T04:29:53;96265.19;;;15.52;100.00
11621;BME280;5866;49.094;11.900;2023-10-13T04:32:36;96267.84;;;15.46;100.00
11621;BME280;5866;49.094;11.900;2023-10-13T04:35:15;96267.91;;;15.38;100.00
11621;BME280;5866;49.094;11.900;2023-10-13T04:37:47;96262.94;;;15.35;100.00
11621;BME280;5866;49.094;11.900;2023-10-13T04:40:24;96253.78;;;15.23;100.00
11621;BME280;5866;49.094;11.900;2023-10-13T04:42:52;96258.38;;;15.29;100.00
11621;BME280;5866;49.094;11.900;2023-10-13T04:45:23;96251.00;;;15.31;100.00
11621;BME280;5866;49.094;11.900;2023-10-13T04:48:15;96246.56;;;15.23;100.00
11621;BME280;5866;49.094;11.900;2023-10-13T04:51:00;96249.81;;;15.19;100.00
11621;BME280;5866;49.094;11.900;2023-10-13T04:53:42;96248.31;;;15.09;100.00
11621;BME280;5866;49.094;11.900;2023-10-13T04:56:23;96255.22;;;15.04;100.00
11621;BME280;5866;49.094;11.900;2023-10-13T04:59:20;96247.31;;;14.96;100.00
11621;BME280;5866;49.094;11.900;2023-10-13T05:02:14;96251.84;;;14.95;100.00
11621;BME280;5866;49.094;11.900;2023-10-13T05:04:56;96264.94;;;14.90;100.00
11621;BME280;5866;49.094;11.900;2023-10-13T05:07:48;96263.25;;;14.89;100.00
11621;BME280;5866;49.094;11.900;2023-10-13T05:10:34;96263.66;;;14.86;100.00
11621;BME280;5866;49.094;11.900;2023-10-13T05:13:20;96267.41;;;14.92;100.00
11621;BME280;5866;49.094;11.900;2023-10-13T05:16:05;96265.13;;;14.89;100.00
11621;BME280;5866;49.094;11.900;2023-10-13T05:18:52;96265.22;;;14.95;100.00
11621;BME280;5866;49.094;11.900;2023-10-13T05:21:37;96276.72;;;14.81;100.00
11621;BME280;5866;49.094;11.900;2023-10-13T05:24:29;96272.47;;;15.01;100.00
11621;BME280;5866;49.094;11.900;2023-10-13T05:27:14;96277.16;;;14.99;100.00
11621;BME280;5866;49.094;11.900;2023-10-13T05:29:59;96270.69;;;15.08;100.00
11621;BME280;5866;49.094;11.900;2023-10-13T05:32:44;96269.69;;;15.09;100.00
11621;BME280;5866;49.094;11.900;2023-10-13T05:35:31;96282.72;;;14.83;100.00
11621;BME280;5866;49.094;11.900;2023-10-13T05:38:31;96283.44;;;14.92;100.00
11621;BME280;5866;49.094;11.900;2023-10-13T05:41:16;96285.50;;;14.75;100.00
11621;BME280;5866;49.094;11.900;2023-10-13T05:44:01;96281.47;;;15.00;100.00
11621;BME280;5866;49.094;11.900;2023-10-13T05:46:52;96278.16;;;14.98;100.00
11621;BME280;5866;49.094;11.900;2023-10-13T05:49:49;96286.81;;;15.00;100.00
11621;BME280;5866;49.094;11.900;2023-10-13T05:52:18;96282.34;;;15.22;100.00
11621;BME280;5866;49.094;11.900;2023-10-13T05:55:06;96289.47;;;15.15;100.00
11621;BME280;5866;49.094;11.900;2023-10-13T05:57:52;96293.34;;;15.34;100.00
11621;BME280;5866;49.094;11.900;2023-10-13T06:00:41;96292.97;;;15.16;100.00
11621;BME280;5866;49.094;11.900;2023-10-13T06:03:26;96296.16;;;15.26;100.00
11621;BME280;5866;49.094;11.900;2023-10-13T06:06:12;96296.47;;;15.52;100.00
11621;BME280;5866;49.094;11.900;2023-10-13T06:08:58;96299.66;;;15.83;100.00
11621;BME280;5866;49.094;11.900;2023-10-13T06:11:44;96302.69;;;15.80;100.00
11621;BME280;5866;49.094;11.900;2023-10-13T06:14:29;96288.88;;;15.98;100.00
11621;BME280;5866;49.094;11.900;2023-10-13T06:17:14;96287.19;;;16.24;100.00
11621;BME280;5866;49.094;11.900;2023-10-13T06:20:00;96296.78;;;16.12;100.00
11621;BME280;5866;49.094;11.900;2023-10-13T06:22:47;96295.16;;;15.90;100.00
11621;BME280;5866;49.094;11.900;2023-10-13T06:25:34;96299.06;;;16.15;100.00
11621;BME280;5866;49.094;11.900;2023-10-13T06:28:19;96288.69;;;16.54;100.00
11621;BME280;5866;49.094;11.900;2023-10-13T06:31:05;96293.78;;;16.84;100.00
11621;BME280;5866;49.094;11.900;2023-10-13T06:33:33;96296.69;;;16.95;100.00
11621;BME280;5866;49.094;11.900;2023-10-13T06:36:01;96299.59;;;16.94;100.00
11621;BME280;5866;49.094;11.900;2023-10-13T06:38:29;96298.50;;;16.82;100.00
11621;BME280;5866;49.094;11.900;2023-10-13T06:41:04;96303.47;;;16.50;100.00
11621;BME280;5866;49.094;11.900;2023-10-13T06:43:32;96301.00;;;16.28;100.00
11621;BME280;5866;49.094;11.900;2023-10-13T06:46:05;96302.25;;;15.98;100.00
11621;BME280;5866;49.094;11.900;2023-10-13T06:48:34;96304.97;;;16.04;100.00
11621;BME280;5866;49.094;11.900;2023-10-13T06:51:02;96302.88;;;16.27;100.00
11621;BME280;5866;49.094;11.900;2023-10-13T06:53:45;96301.53;;;16.44;100.00
11621;BME280;5866;49.094;11.900;2023-10-13T06:56:16;96299.47;;;16.46;100.00
11621;BME280;5866;49.094;11.900;2023-10-13T06:58:53;96300.31;;;16.75;100.00
11621;BME280;5866;49.094;11.900;2023-10-13T07:01:26;96301.22;;;16.88;100.00
11621;BME280;5866;49.094;11.900;2023-10-13T07:03:54;96301.38;;;17.34;100.00
11621;BME280;5866;49.094;11.900;2023-10-13T07:06:28;96304.59;;;17.83;100.00
11621;BME280;5866;49.094;11.900;2023-10-13T07:09:00;96308.13;;;18.56;100.00
11621;BME280;5866;49.094;11.900;2023-10-13T07:11:32;96297.78;;;19.67;100.00
11621;BME280;5866;49.094;11.900;2023-10-13T07:14:06;96294.03;;;20.31;100.00
11621;BME280;5866;49.094;11.900;2023-10-13T07:16:43;96292.97;;;20.75;92.74
11621;BME280;5866;49.094;11.900;2023-10-13T07:19:13;96294.50;;;21.25;87.47
11621;BME280;5866;49.094;11.900;2023-10-13T07:21:46;96291.22;;;21.53;81.33
11621;BME280;5866;49.094;11.900;2023-10-13T07:24:14;96293.63;;;22.02;76.35
11621;BME280;5866;49.094;11.900;2023-10-13T07:26:43;96288.19;;;22.55;70.44
11621;BME280;5866;49.094;11.900;2023-10-13T07:29:12;96291.72;;;23.02;67.76
11621;BME280;5866;49.094;11.900;2023-10-13T07:31:39;96288.00;;;23.31;65.23
11621;BME280;5866;49.094;11.900;2023-10-13T07:34:08;96288.69;;;23.38;63.96
11621;BME280;5866;49.094;11.900;2023-10-13T07:36:51;96287.94;;;23.54;61.17
11621;BME280;5866;49.094;11.900;2023-10-13T07:39:19;96283.72;;;23.46;59.54
11621;BME280;5866;49.094;11.900;2023-10-13T07:41:52;96274.56;;;23.47;60.13
11621;BME280;5866;49.094;11.900;2023-10-13T07:44:22;96279.53;;;23.39;60.75
11621;BME280;5866;49.094;11.900;2023-10-13T07:46:55;96285.41;;;23.92;58.64
11621;BME280;5866;49.094;11.900;2023-10-13T07:49:31;96285.41;;;24.20;57.37
11621;BME280;5866;49.094;11.900;2023-10-13T07:52:00;96283.56;;;24.09;56.66
11621;BME280;5866;49.094;11.900;2023-10-13T07:54:42;96278.94;;;23.93;57.76
11621;BME280;5866;49.094;11.900;2023-10-13T07:57:11;96271.84;;;24.20;57.11
11621;BME280;5866;49.094;11.900;2023-10-13T07:59:41;96279.41;;;24.18;56.43
11621;BME280;5866;49.094;11.900;2023-10-13T08:02:14;96273.41;;;24.33;56.45
11621;BME280;5866;49.094;11.900;2023-10-13T08:05:08;96275.63;;;23.91;56.75
11621;BME280;5866;49.094;11.900;2023-10-13T08:07:40;96269.38;;;24.52;56.53
11621;BME280;5866;49.094;11.900;2023-10-13T08:10:10;96262.16;;;24.96;55.81
11621;BME280;5866;49.094;11.900;2023-10-13T08:12:44;96258.56;;;25.12;53.68
11621;BME280;5866;49.094;11.900;2023-10-13T08:15:11;96252.38;;;25.60;52.56
11621;BME280;5866;49.094;11.900;2023-10-13T08:17:48;96247.69;;;26.04;50.91
11621;BME280;5866;49.094;11.900;2023-10-13T08:20:18;96259.72;;;26.76;49.23
11621;BME280;5866;49.094;11.900;2023-10-13T08:22:48;96254.97;;;26.66;49.38
11621;BME280;5866;49.094;11.900;2023-10-13T08:25:16;96260.69;;;27.07;48.37
11621;BME280;5866;49.094;11.900;2023-10-13T08:27:48;96259.44;;;27.29;46.93
11621;BME280;5866;49.094;11.900;2023-10-13T08:30:33;96256.91;;;26.71;47.60
11621;BME280;5866;49.094;11.900;2023-10-13T08:33:18;96258.00;;;26.33;48.63
11621;BME280;5866;49.094;11.900;2023-10-13T08:35:50;96267.59;;;26.72;47.35
11621;BME280;5866;49.094;11.900;2023-10-13T08:38:44;96261.78;;;26.64;47.96
11621;BME280;5866;49.094;11.900;2023-10-13T08:41:18;96263.69;;;26.63;47.44
11621;BME280;5866;49.094;11.900;2023-10-13T08:44:02;96262.59;;;26.28;48.37
11621;BME280;5866;49.094;11.900;2023-10-13T08:46:36;96257.09;;;26.23;47.14
11621;BME280;5866;49.094;11.900;2023-10-13T08:49:32;96264.38;;;26.49;47.25
11621;BME280;5866;49.094;11.900;2023-10-13T08:52:09;96260.66;;;25.70;46.85
11621;BME280;5866;49.094;11.900;2023-10-13T08:54:53;96261.63;;;25.85;47.06
11621;BME280;5866;49.094;11.900;2023-10-13T08:57:40;96260.84;;;26.17;46.19
11621;BME280;5866;49.094;11.900;2023-10-13T09:00:11;96253.47;;;25.85;45.18
11621;BME280;5866;49.094;11.900;2023-10-13T09:03:04;96259.91;;;26.33;45.10
11621;BME280;5866;49.094;11.900;2023-10-13T09:05:51;96254.91;;;26.20;45.30
11621;BME280;5866;49.094;11.900;2023-10-13T09:08:28;96256.88;;;26.29;45.71
11621;BME280;5866;49.094;11.900;2023-10-13T09:11:11;96262.06;;;26.31;45.54
11621;BME280;5866;49.094;11.900;2023-10-13T09:13:40;96259.16;;;26.74;43.90
11621;BME280;5866;49.094;11.900;2023-10-13T09:16:14;96255.91;;;27.34;42.87
11621;BME280;5866;49.094;11.900;2023-10-13T09:19:09;96245.72;;;27.76;41.67
11621;BME280;5866;49.094;11.900;2023-10-13T09:21:38;96239.53;;;28.01;41.09
11621;BME280;5866;49.094;11.900;2023-10-13T09:24:21;96245.81;;;28.42;41.19
11621;BME280;5866;49.094;11.900;2023-10-13T09:26:50;96236.72;;;27.61;41.93
11621;BME280;5866;49.094;11.900;2023-10-13T09:29:20;96243.78;;;27.00;42.39
11621;BME280;5866;49.094;11.900;2023-10-13T09:31:59;96232.59;;;27.53;41.19
11621;BME280;5866;49.094;11.900;2023-10-13T09:34:29;96241.72;;;27.22;41.35
11621;BME280;5866;49.094;11.900;2023-10-13T09:36:57;96241.44;;;27.18;41.80
11621;BME280;5866;49.094;11.900;2023-10-13T09:39:25;96228.81;;;27.74;41.20
11621;BME280;5866;49.094;11.900;2023-10-13T09:42:07;96229.19;;;28.23;39.96
11621;BME280;5866;49.094;11.900;2023-10-13T09:44:37;96232.94;;;27.87;39.33
11621;BME280;5866;49.094;11.900;2023-10-13T09:47:10;96222.84;;;27.87;39.96
11621;BME280;5866;49.094;11.900;2023-10-13T09:49:45;96224.59;;;27.31;40.31
11621;BME280;5866;49.094;11.900;2023-10-13T09:52:16;96224.34;;;27.38;39.98
11621;BME280;5866;49.094;11.900;2023-10-13T09:54:53;96224.72;;;27.67;40.10
11621;BME280;5866;49.094;11.900;2023-10-13T09:57:29;96222.59;;;28.49;37.32
11621;BME280;5866;49.094;11.900;2023-10-13T10:00:06;96225.31;;;28.94;37.04
11621;BME280;5866;49.094;11.900;2023-10-13T10:02:55;96218.00;;;29.49;36.83
11621;BME280;5866;49.094;11.900;2023-10-13T10:05:32;96220.41;;;28.76;36.98
11621;BME280;5866;49.094;11.900;2023-10-13T10:08:02;96218.25;;;28.43;37.15
11621;BME280;5866;49.094;11.900;2023-10-13T10:10:44;96215.72;;;27.66;36.83
11621;BME280;5866;49.094;11.900;2023-10-13T10:13:21;96215.47;;;26.96;38.88
11621;BME280;5866;49.094;11.900;2023-10-13T10:15:59;96224.47;;;27.01;39.34
11621;BME280;5866;49.094;11.900;2023-10-13T10:18:31;96216.84;;;27.03;38.09
11621;BME280;5866;49.094;11.900;2023-10-13T10:21:03;96223.09;;;26.57;38.96
11621;BME280;5866;49.094;11.900;2023-10-13T10:23:33;96219.34;;;26.26;41.02
11621;BME280;5866;49.094;11.900;2023-10-13T10:26:11;96217.44;;;26.00;41.82
11621;BME280;5866;49.094;11.900;2023-10-13T10:28:42;96216.84;;;25.66;41.00
11621;BME280;5866;49.094;11.900;2023-10-13T10:31:11;96221.75;;;26.23;41.45
11621;BME280;5866;49.094;11.900;2023-10-13T10:33:43;96209.75;;;26.55;40.32
11621;BME280;5866;49.094;11.900;2023-10-13T10:36:11;96211.09;;;26.53;39.66
11621;BME280;5866;49.094;11.900;2023-10-13T10:38:53;96210.81;;;26.96;38.86
11621;BME280;5866;49.094;11.900;2023-10-13T10:41:26;96206.81;;;28.11;38.31
11621;BME280;5866;49.094;11.900;2023-10-13T10:44:09;96203.00;;;28.17;37.65
11621;BME280;5866;49.094;11.900;2023-10-13T10:46:41;96197.00;;;28.10;37.79
11621;BME280;5866;49.094;11.900;2023-10-13T10:49:25;96193.13;;;28.66;37.03
11621;BME280;5866;49.094;11.900;2023-10-13T10:51:58;96184.25;;;29.09;36.64
11621;BME280;5866;49.094;11.900;2023-10-13T10:54:30;96184.94;;;28.71;37.10
11621;BME280;5866;49.094;11.900;2023-10-13T10:56:59;96168.63;;;28.31;36.94
11621;BME280;5866;49.094;11.900;2023-10-13T10:59:38;96160.88;;;28.83;36.89
11621;BME280;5866;49.094;11.900;2023-10-13T11:02:06;96154.09;;;28.56;37.44
11621;BME280;5866;49.094;11.900;2023-10-13T11:04:36;96154.97;;;27.96;38.10
11621;BME280;5866;49.094;11.900;2023-10-13T11:07:21;96145.16;;;28.10;37.67
11621;BME280;5866;49.094;11.900;2023-10-13T11:09:50;96144.09;;;28.06;37.86
11621;BME280;5866;49.094;11.900;2023-10-13T11:12:19;96133.69;;;28.33;36.43
11621;BME280;5866;49.094;11.900;2023-10-13T11:15:01;96132.59;;;28.29;36.10
11621;BME280;5866;49.094;11.900;2023-10-13T11:17:29;96135.84;;;28.61;36.17
11621;BME280;5866;49.094;11.900;2023-10-13T11:20:11;96125.44;;;28.53;35.77
11621;BME280;5866;49.094;11.900;2023-10-13T11:22:46;96129.53;;;28.56;36.02
11621;BME280;5866;49.094;11.900;2023-10-13T11:25:22;96127.66;;;28.61;35.73
11621;BME280;5866;49.094;11.900;2023-10-13T11:27:56;96133.94;;;28.57;35.63
11621;BME280;5866;49.094;11.900;2023-10-13T11:30:27;96119.72;;;28.55;35.46
11621;BME280;5866;49.094;11.900;2023-10-13T11:33:08;96111.78;;;29.32;34.87
11621;BME280;5866;49.094;11.900;2023-10-13T11:35:38;96113.63;;;29.42;35.06
11621;BME280;5866;49.094;11.900;2023-10-13T11:38:21;96112.88;;;29.31;35.19
11621;BME280;5866;49.094;11.900;2023-10-13T11:40:54;96109.22;;;28.92;35.37
11621;BME280;5866;49.094;11.900;2023-10-13T11:43:41;96104.91;;;28.86;33.99
11621;BME280;5866;49.094;11.900;2023-10-13T11:46:32;96102.03;;;28.37;35.24
11621;BME280;5866;49.094;11.900;2023-10-13T11:49:13;96097.09;;;28.39;35.87
11621;BME280;5866;49.094;11.900;2023-10-13T11:51:47;96090.34;;;29.00;34.27
11621;BME280;5866;49.094;11.900;2023-10-13T11:54:15;96089.63;;;29.34;33.46
11621;BME280;5866;49.094;11.900;2023-10-13T11:56:45;96084.47;;;29.27;33.04
11621;BME280;5866;49.094;11.900;2023-10-13T11:59:13;96089.78;;;29.91;32.77
11621;BME280;5866;49.094;11.900;2023-10-13T12:01:44;96079.16;;;29.46;33.64
11621;BME280;5866;49.094;11.900;2023-10-13T12:04:26;96082.75;;;28.87;34.45
11621;BME280;5866;49.094;11.900;2023-10-13T12:07:08;96078.72;;;29.29;32.45
11621;BME280;5866;49.094;11.900;2023-10-13T12:09:44;96075.22;;;29.96;32.21
11621;BME280;5866;49.094;11.900;2023-10-13T12:12:32;96065.00;;;31.06;31.13
11621;BME280;5866;49.094;11.900;2023-10-13T12:15:07;96073.09;;;30.92;30.63
11621;BME280;5866;49.094;11.900;2023-10-13T12:17:52;96069.38;;;30.07;32.10
11621;BME280;5866;49.094;11.900;2023-10-13T12:20:26;96069.16;;;29.70;33.35
11621;BME280;5866;49.094;11.900;2023-10-13T12:23:01;96062.38;;;29.24;32.70
11621;BME280;5866;49.094;11.900;2023-10-13T12:25:41;96059.38;;;28.71;32.90
11621;BME280;5866;49.094;11.900;2023-10-13T12:28:24;96047.50;;;29.40;33.04
11621;BME280;5866;49.094;11.900;2023-10-13T12:30:55;96051.75;;;30.18;31.63
11621;BME280;5866;49.094;11.900;2023-10-13T12:33:24;96034.84;;;30.87;30.30
11621;BME280;5866;49.094;11.900;2023-10-13T12:35:57;96040.00;;;31.63;30.30
11621;BME280;5866;49.094;11.900;2023-10-13T12:38:35;96030.34;;;31.52;29.94
11621;BME280;5866;49.094;11.900;2023-10-13T12:41:26;96028.59;;;32.21;28.96
11621;BME280;5866;49.094;11.900;2023-10-13T12:44:11;96022.53;;;31.59;28.79
11621;BME280;5866;49.094;11.900;2023-10-13T12:46:56;96018.69;;;31.60;29.14
11621;BME280;5866;49.094;11.900;2023-10-13T12:49:42;96011.50;;;31.96;28.37
11621;BME280;5866;49.094;11.900;2023-10-13T12:52:35;96015.34;;;31.95;28.04
11621;BME280;5866;49.094;11.900;2023-10-13T12:55:04;96003.06;;;31.74;28.91
11621;BME280;5866;49.094;11.900;2023-10-13T12:57:36;95999.53;;;31.23;28.91
11621;BME280;5866;49.094;11.900;2023-10-13T13:00:13;95998.81;;;32.00;27.48
11621;BME280;5866;49.094;11.900;2023-10-13T13:02:47;95990.41;;;31.09;28.74
11621;BME280;5866;49.094;11.900;2023-10-13T13:05:18;95988.06;;;31.85;28.48
11621;BME280;5866;49.094;11.900;2023-10-13T13:07:49;95981.81;;;31.66;28.22
11621;BME280;5866;49.094;11.900;2023-10-13T13:10:22;95987.31;;;32.12;27.97
11621;BME280;5866;49.094;11.900;2023-10-13T13:13:05;95981.22;;;32.29;27.49
11621;BME280;5866;49.094;11.900;2023-10-13T13:15:33;95980.94;;;31.84;27.79
11621;BME280;5866;49.094;11.900;2023-10-13T13:18:01;95976.66;;;31.65;28.80
11621;BME280;5866;49.094;11.900;2023-10-13T13:20:37;95970.94;;;31.93;26.84
11621;BME280;5866;49.094;11.900;2023-10-13T13:23:10;95965.38;;;32.53;27.32
11621;BME280;5866;49.094;11.900;2023-10-13T13:25:44;95960.41;;;31.82;28.25
11621;BME280;5866;49.094;11.900;2023-10-13T13:28:12;95955.34;;;31.75;27.22
11621;BME280;5866;49.094;11.900;2023-10-13T13:30:41;95955.69;;;31.55;27.96
11621;BME280;5866;49.094;11.900;2023-10-13T13:33:09;95946.84;;;32.18;27.25
11621;BME280;5866;49.094;11.900;2023-10-13T13:35:40;95950.06;;;31.79;27.67
11621;BME280;5866;49.094;11.900;2023-10-13T13:38:09;95945.28;;;31.84;27.52